Time;durP1;ratioP1;P1;durP2;ratioP2;P2;SDS_P1;SDS_P2;PMS_P1;PMS_P2;Temp;Humidity;BMP_temperature;BMP_pressure;BME280_temperature;BME280_humidity;BME280_pressure;Samples;Min_cycle;Max_cycle;Signal;HPM_P1;HPM_P2
2022/05/28 00:01:11;;;;;;;14.23;12.87;;;;;;;19.24;72.23;96854.13;4817705;29;20204;-77
2022/05/28 00:03:38;;;;;;;13.13;11.83;;;;;;;19.23;72.79;96851.63;4818711;29;20267;-74
2022/05/28 00:06:11;;;;;;;14.07;12.77;;;;;;;19.20;72.54;96834.34;4818473;29;20227;-73
2022/05/28 00:08:38;;;;;;;13.53;12.30;;;;;;;19.30;72.68;96851.00;4819803;29;20331;-72
2022/05/28 00:11:15;;;;;;;14.00;12.60;;;;;;;19.23;73.31;96838.50;4821955;29;20201;-72
2022/05/28 00:13:43;;;;;;;13.17;11.97;;;;;;;19.12;74.79;96835.94;4820599;29;20617;-73
2022/05/28 00:16:12;;;;;;;13.03;11.80;;;;;;;19.17;74.14;96824.09;4821841;29;20200;-74
2022/05/28 00:18:40;;;;;;;13.40;11.30;;;;;;;19.23;74.20;96844.59;4820891;29;20862;-73
2022/05/28 00:21:11;;;;;;;13.10;11.67;;;;;;;19.22;74.72;96836.84;4821254;29;20696;-73
2022/05/28 00:23:39;;;;;;;12.40;11.23;;;;;;;19.45;73.80;96823.47;4820454;29;20641;-73
2022/05/28 00:26:07;;;;;;;12.33;11.07;;;;;;;19.70;72.24;96824.84;4820193;29;20295;-74
2022/05/28 00:28:34;;;;;;;12.60;11.30;;;;;;;19.71;72.26;96815.16;4821701;29;20701;-74
2022/05/28 00:31:01;;;;;;;13.27;12.07;;;;;;;19.46;72.82;96800.66;4818743;29;20675;-73
2022/05/28 00:33:30;;;;;;;13.37;12.03;;;;;;;19.58;72.74;96812.75;4821651;29;20204;-73
2022/05/28 00:35:58;;;;;;;13.03;11.40;;;;;;;19.65;72.71;96815.69;4820539;29;20215;-72
2022/05/28 00:38:27;;;;;;;12.93;11.50;;;;;;;19.85;71.66;96822.69;4820721;29;20205;-73
2022/05/28 00:40:58;;;;;;;13.87;11.53;;;;;;;19.86;71.48;96813.84;4821568;29;20225;-73
2022/05/28 00:43:27;;;;;;;13.90;12.70;;;;;;;19.31;73.29;96808.00;4819844;29;20237;-72
2022/05/28 00:46:01;;;;;;;14.40;12.47;;;;;;;19.28;74.09;96803.03;4821325;29;20342;-74
2022/05/28 00:48:32;;;;;;;12.67;11.50;;;;;;;19.30;73.80;96805.53;4819692;29;20201;-73
2022/05/28 00:51:06;;;;;;;13.67;12.27;;;;;;;19.27;74.29;96814.47;4821350;29;20292;-72
2022/05/28 00:53:34;;;;;;;13.77;11.87;;;;;;;19.34;74.01;96818.28;4821249;29;20240;-72
2022/05/28 00:56:03;;;;;;;12.23;11.03;;;;;;;19.22;73.53;96792.22;4819872;29;20209;-72
2022/05/28 00:58:32;;;;;;;12.50;11.40;;;;;;;19.59;72.74;96813.59;4821214;29;20201;-75
2022/05/28 01:01:00;;;;;;;14.33;11.90;;;;;;;19.71;72.00;96821.25;4819476;29;20670;-71
2022/05/28 01:04:15;;;;;;;13.43;11.10;;;;;;;19.80;70.85;96804.72;4819878;29;20319;-71
2022/05/28 01:06:49;;;;;;;12.43;11.23;;;;;;;19.96;70.44;96809.47;4821089;29;20202;-74
2022/05/28 01:09:50;;;;;;;12.47;11.27;;;;;;;19.91;70.06;96801.13;4819431;29;20757;-71
2022/05/28 01:12:33;;;;;;;11.20;10.03;;;;;;;19.69;70.33;96788.19;4819893;29;20324;-71
2022/05/28 01:15:19;;;;;;;11.80;10.67;;;;;;;19.82;70.22;96794.06;4819112;29;20227;-71
2022/05/28 01:17:50;;;;;;;11.20;10.10;;;;;;;19.96;69.21;96802.41;4819564;29;20283;-72
2022/05/28 01:20:31;;;;;;;12.73;10.47;;;;;;;19.92;69.09;96808.91;4820149;29;20205;-72
2022/05/28 01:23:39;;;;;;;10.80;9.77;;;;;;;19.76;69.37;96807.72;4819375;29;20655;-73
2022/05/28 01:26:32;;;;;;;11.83;10.70;;;;;;;19.75;68.97;96816.56;4797374;29;20681;-72
2022/05/28 01:29:08;;;;;;;11.07;10.07;;;;;;;19.68;68.60;96800.47;4820915;29;20219;-72
2022/05/28 01:31:37;;;;;;;11.57;10.57;;;;;;;19.75;68.89;96796.38;4818037;29;20194;-72
2022/05/28 01:34:07;;;;;;;11.63;10.53;;;;;;;19.68;68.26;96789.16;4849867;29;20293;-71
2022/05/28 01:36:36;;;;;;;12.20;10.97;;;;;;;19.44;69.02;96789.44;4820264;29;20684;-75
2022/05/28 01:39:07;;;;;;;13.20;10.97;;;;;;;19.24;69.30;96799.00;4819700;29;20209;-76
2022/05/28 01:41:37;;;;;;;12.03;10.93;;;;;;;19.06;70.30;96802.31;4820891;29;20299;-75
2022/05/28 01:44:08;;;;;;;12.20;11.10;;;;;;;19.00;70.09;96794.97;4817880;29;20229;-77
2022/05/28 01:46:38;;;;;;;12.73;11.53;;;;;;;18.96;70.17;96796.19;4820638;29;20211;-73
2022/05/28 01:49:09;;;;;;;12.80;11.60;;;;;;;19.07;69.75;96802.19;4817755;29;20744;-74
2022/05/28 01:51:46;;;;;;;12.83;11.37;;;;;;;19.14;69.79;96803.34;4820100;29;20201;-72
2022/05/28 01:54:16;;;;;;;12.70;11.43;;;;;;;19.10;69.38;96811.63;4819577;29;20227;-72
2022/05/28 01:56:50;;;;;;;13.40;11.83;;;;;;;19.11;69.41;96798.34;4818979;29;20203;-75
2022/05/28 01:59:25;;;;;;;12.40;11.30;;;;;;;19.09;69.22;96800.28;4820474;29;20300;-73
2022/05/28 02:01:55;;;;;;;12.60;11.37;;;;;;;19.03;69.06;96790.28;4818910;29;20584;-78
2022/05/28 02:04:22;;;;;;;11.60;10.50;;;;;;;19.13;68.55;96791.19;4819914;29;20255;-78
2022/05/28 02:06:49;;;;;;;13.33;12.03;;;;;;;18.97;69.73;96790.78;4819818;29;20201;-78
2022/05/28 02:09:24;;;;;;;17.10;13.07;;;;;;;18.49;71.32;96785.16;4818905;29;20281;-77
2022/05/28 02:12:06;;;;;;;15.30;13.90;;;;;;;18.14;72.51;96787.13;4818693;29;20215;-76
2022/05/28 02:14:54;;;;;;;15.47;13.67;;;;;;;17.86;74.58;96785.03;4818784;29;20203;-74
2022/05/28 02:17:30;;;;;;;15.53;14.13;;;;;;;17.74;75.96;96778.97;4819978;29;20218;-76
2022/05/28 02:20:13;;;;;;;15.50;13.77;;;;;;;17.80;76.40;96783.72;4819831;29;20339;-77
2022/05/28 02:23:11;;;;;;;14.70;13.20;;;;;;;17.94;76.60;96780.03;4818367;29;20271;-77
2022/05/28 02:25:45;;;;;;;13.33;11.93;;;;;;;18.23;75.06;96788.19;4848830;29;20238;-78
2022/05/28 02:28:14;;;;;;;14.60;13.20;;;;;;;18.47;73.86;96794.09;4817746;29;20269;-79
2022/05/28 02:30:50;;;;;;;13.47;11.03;;;;;;;18.65;73.26;96790.81;4818995;29;20205;-75
2022/05/28 02:33:19;;;;;;;12.07;10.83;;;;;;;18.89;71.98;96792.38;4803241;29;20215;-73
2022/05/28 02:35:48;;;;;;;11.93;10.20;;;;;;;18.91;71.44;96793.09;4817930;29;20199;-77
2022/05/28 02:38:16;;;;;;;11.70;10.70;;;;;;;18.83;72.10;96798.97;4818680;29;20283;-72
2022/05/28 02:40:43;;;;;;;11.20;10.10;;;;;;;18.65;72.21;96803.09;4818097;29;20285;-71
2022/05/28 02:43:11;;;;;;;11.13;10.07;;;;;;;18.48;73.39;96799.25;4819410;29;20244;-72
2022/05/28 02:45:40;;;;;;;11.10;9.90;;;;;;;18.32;74.24;96795.31;4818940;29;20863;-72
2022/05/28 02:48:08;;;;;;;11.33;10.13;;;;;;;18.27;74.40;96797.47;4818552;29;20197;-73
2022/05/28 02:50:35;;;;;;;12.00;10.30;;;;;;;18.22;74.82;96800.44;4818202;29;20228;-72
2022/05/28 02:53:02;;;;;;;11.73;10.63;;;;;;;17.95;75.50;96791.34;4816785;29;20211;-71
2022/05/28 02:55:29;;;;;;;13.07;11.77;;;;;;;17.63;77.14;96797.31;4803205;29;20214;-73
2022/05/28 02:57:56;;;;;;;14.90;12.67;;;;;;;17.38;78.37;96776.56;4817905;29;20231;-72
2022/05/28 03:00:24;;;;;;;14.13;10.83;;;;;;;17.38;79.08;96781.78;4818264;29;20237;-74
2022/05/28 03:02:51;;;;;;;12.93;10.80;;;;;;;17.77;78.09;96783.13;4818781;29;20200;-73
2022/05/28 03:05:22;;;;;;;11.83;10.63;;;;;;;17.82;78.06;96783.63;4802208;29;20239;-74
2022/05/28 03:07:49;;;;;;;10.83;9.73;;;;;;;17.96;77.54;96800.84;4848360;29;20242;-74
2022/05/28 03:10:17;;;;;;;11.00;9.27;;;;;;;18.14;77.56;96792.38;4831774;29;20287;-74
2022/05/28 03:12:44;;;;;;;12.37;9.80;;;;;;;18.39;76.44;96802.56;4818118;29;20279;-73
2022/05/28 03:15:11;;;;;;;13.17;9.77;;;;;;;18.62;75.37;96803.34;4816412;29;20199;-72
2022/05/28 03:17:38;;;;;;;11.03;9.53;;;;;;;18.58;75.28;96812.44;4819267;29;20257;-78
2022/05/28 03:20:07;;;;;;;13.23;9.93;;;;;;;18.77;74.57;96807.38;4818571;29;20292;-77
2022/05/28 03:22:34;;;;;;;10.87;9.23;;;;;;;18.69;74.20;96809.78;4818481;29;20210;-80
2022/05/28 03:25:01;;;;;;;11.80;10.17;;;;;;;18.63;74.31;96811.09;4802527;29;20623;-79
2022/05/28 03:27:29;;;;;;;12.30;11.00;;;;;;;18.53;75.12;96819.81;4816147;29;20220;-79
2022/05/28 03:29:56;;;;;;;12.20;10.63;;;;;;;18.36;75.56;96828.22;4847861;29;20320;-72
2022/05/28 03:32:23;;;;;;;14.80;11.13;;;;;;;18.23;76.31;96828.34;4817036;29;20270;-78
2022/05/28 03:34:51;;;;;;;12.87;11.10;;;;;;;18.10;76.98;96821.56;4817727;29;20234;-77
2022/05/28 03:37:21;;;;;;;13.37;11.97;;;;;;;17.84;77.81;96806.13;4817227;29;20205;-78
2022/05/28 03:39:48;;;;;;;15.13;13.53;;;;;;;17.87;77.85;96813.72;4816982;29;20893;-76
2022/05/28 03:42:15;;;;;;;15.60;12.27;;;;;;;17.77;78.51;96818.03;4819314;29;20646;-76
2022/05/28 03:44:42;;;;;;;15.97;12.03;;;;;;;17.94;78.12;96824.56;4820754;29;20314;-77
2022/05/28 03:47:10;;;;;;;12.03;10.73;;;;;;;18.38;76.60;96821.06;4822458;29;20709;-78
2022/05/28 03:49:39;;;;;;;11.30;10.17;;;;;;;18.62;75.39;96821.72;4820949;29;20202;-77
2022/05/28 03:52:07;;;;;;;10.13;9.10;;;;;;;18.73;74.66;96820.84;4822483;29;20195;-76
2022/05/28 03:54:34;;;;;;;14.60;10.30;;;;;;;18.64;75.22;96825.06;4821497;29;20757;-78
2022/05/28 03:57:08;;;;;;;10.90;9.80;;;;;;;18.53;76.07;96806.72;4820420;29;20201;-75
2022/05/28 03:59:35;;;;;;;11.50;10.30;;;;;;;18.64;75.17;96823.28;4822473;29;20201;-76
2022/05/28 04:02:03;;;;;;;11.57;10.37;;;;;;;18.56;75.38;96827.47;4820770;29;20287;-79
2022/05/28 04:04:31;;;;;;;13.13;11.70;;;;;;;18.28;76.60;96822.75;4822168;29;20245;-77
2022/05/28 04:07:00;;;;;;;14.10;11.67;;;;;;;18.25;77.14;96833.47;4820739;29;20380;-77
2022/05/28 04:09:28;;;;;;;13.03;10.83;;;;;;;18.20;77.43;96844.31;4822115;29;20228;-79
2022/05/28 04:11:56;;;;;;;12.53;11.13;;;;;;;18.17;77.20;96848.97;4820136;29;20677;-75
2022/05/28 04:14:23;;;;;;;11.70;10.50;;;;;;;18.30;76.92;96841.81;4821338;29;20199;-76
2022/05/28 04:16:50;;;;;;;14.67;11.37;;;;;;;18.29;77.40;96848.00;4821988;29;20203;-76
2022/05/28 04:19:18;;;;;;;13.40;10.73;;;;;;;18.29;76.79;96837.50;4820322;29;20293;-75
2022/05/28 04:21:45;;;;;;;12.40;11.17;;;;;;;18.41;76.64;96833.91;4822121;29;20217;-75
2022/05/28 04:24:13;;;;;;;14.67;10.57;;;;;;;18.46;76.47;96840.50;4818975;29;20235;-78
2022/05/28 04:26:40;;;;;;;12.67;11.37;;;;;;;18.46;76.48;96851.00;4822226;29;20699;-78
2022/05/28 04:29:09;;;;;;;12.30;10.03;;;;;;;18.59;76.12;96856.91;4820565;29;20585;-80
2022/05/28 04:31:36;;;;;;;11.73;10.53;;;;;;;18.65;75.83;96834.56;4819785;29;20195;-80
2022/05/28 04:34:03;;;;;;;11.77;10.40;;;;;;;18.77;76.35;96853.75;4821479;29;20705;-79
2022/05/28 04:36:31;;;;;;;12.60;10.47;;;;;;;18.75;76.16;96867.00;4818723;29;20209;-75
2022/05/28 04:38:58;;;;;;;12.10;10.90;;;;;;;18.65;76.87;96851.16;4820649;29;20239;-78
2022/05/28 04:41:25;;;;;;;11.40;10.30;;;;;;;18.78;77.66;96869.34;4820225;29;20213;-77
2022/05/28 04:43:52;;;;;;;11.10;10.00;;;;;;;18.95;76.96;96852.25;4821522;29;20323;-74
2022/05/28 04:46:20;;;;;;;11.33;9.40;;;;;;;19.00;76.78;96844.84;4819434;29;20200;-74
2022/05/28 04:48:47;;;;;;;12.60;10.00;;;;;;;18.80;77.62;96843.00;4850388;29;20765;-74
2022/05/28 04:51:15;;;;;;;10.83;9.77;;;;;;;19.02;76.42;96842.91;4819906;29;20208;-76
2022/05/28 04:53:42;;;;;;;12.40;9.70;;;;;;;19.18;75.43;96831.03;4817947;29;20624;-75
2022/05/28 04:56:09;;;;;;;11.73;8.87;;;;;;;19.40;74.78;96845.84;4820756;29;20201;-73
2022/05/28 04:58:40;;;;;;;12.00;9.63;;;;;;;19.67;73.19;96833.00;4819537;29;20209;-73
2022/05/28 05:01:12;;;;;;;11.10;8.97;;;;;;;19.87;72.28;96832.13;4820962;29;20291;-78
2022/05/28 05:03:40;;;;;;;10.27;8.03;;;;;;;19.94;72.01;96837.69;4848918;29;20347;-74
2022/05/28 05:06:07;;;;;;;12.87;8.33;;;;;;;20.24;71.05;96835.03;4820285;29;20847;-73
2022/05/28 05:08:41;;;;;;;9.13;7.57;;;;;;;20.27;70.38;96837.41;4820873;29;20828;-73
2022/05/28 05:11:09;;;;;;;12.07;8.17;;;;;;;20.38;70.26;96832.03;4819041;29;20212;-74
2022/05/28 05:13:36;;;;;;;10.20;8.07;;;;;;;20.62;69.38;96834.28;4820519;29;20213;-73
2022/05/28 05:16:11;;;;;;;9.27;8.27;;;;;;;20.64;69.35;96827.09;4819218;29;20297;-74
2022/05/28 05:18:39;;;;;;;8.83;7.60;;;;;;;20.97;68.86;96824.91;4820655;29;20293;-75
2022/05/28 05:21:07;;;;;;;10.40;7.90;;;;;;;21.14;67.72;96823.41;4819605;29;20202;-77
2022/05/28 05:23:34;;;;;;;9.80;7.23;;;;;;;21.30;67.02;96834.19;4819960;29;20257;-77
2022/05/28 05:26:08;;;;;;;8.43;7.37;;;;;;;21.11;67.93;96847.38;4820981;29;20286;-79
2022/05/28 05:28:36;;;;;;;10.20;7.53;;;;;;;21.24;67.45;96858.47;4818871;29;20315;-73
2022/05/28 05:31:10;;;;;;;11.50;7.53;;;;;;;21.28;67.61;96854.56;4819253;29;20289;-75
2022/05/28 05:33:38;;;;;;;12.50;7.63;;;;;;;21.53;66.33;96850.50;4819245;29;20644;-73
2022/05/28 05:36:05;;;;;;;8.13;7.07;;;;;;;21.31;66.60;96853.47;4819267;29;20204;-76
2022/05/28 05:38:32;;;;;;;13.20;7.77;;;;;;;21.12;67.58;96848.22;4819886;29;20244;-72
2022/05/28 05:40:59;;;;;;;11.70;7.40;;;;;;;21.16;67.66;96844.31;4818473;29;20240;-74
2022/05/28 05:43:27;;;;;;;14.20;7.77;;;;;;;21.16;68.14;96839.91;4820438;29;20288;-74
2022/05/28 05:46:00;;;;;;;10.40;7.90;;;;;;;21.24;68.35;96826.00;4817688;29;20194;-73
2022/05/28 05:48:29;;;;;;;9.43;7.67;;;;;;;21.26;68.22;96829.34;4849628;29;20201;-74
2022/05/28 05:50:56;;;;;;;10.33;8.40;;;;;;;21.56;67.30;96826.50;4817641;29;20205;-75
2022/05/28 05:53:24;;;;;;;11.67;8.80;;;;;;;21.82;66.01;96828.38;4819476;29;20213;-75
2022/05/28 05:55:51;;;;;;;15.33;8.10;;;;;;;22.13;65.09;96828.97;4819957;29;20259;-75
2022/05/28 05:58:18;;;;;;;10.50;8.23;;;;;;;22.30;64.68;96828.19;4819397;29;20707;-73
2022/05/28 06:00:45;;;;;;;8.57;7.67;;;;;;;22.71;63.14;96826.03;4803846;29;20691;-74
2022/05/28 06:03:17;;;;;;;16.87;8.23;;;;;;;23.32;61.21;96848.06;4817520;29;20231;-74
2022/05/28 06:05:44;;;;;;;12.17;8.77;;;;;;;23.67;60.55;96840.06;4819630;29;20324;-73
2022/05/28 06:08:15;;;;;;;11.60;8.30;;;;;;;23.85;58.87;96843.47;4818582;29;20269;-73
2022/05/28 06:10:43;;;;;;;10.37;7.40;;;;;;;23.93;59.06;96843.53;4820019;29;20677;-73
2022/05/28 06:13:10;;;;;;;13.03;8.27;;;;;;;23.98;58.09;96833.31;4819574;29;20227;-74
2022/05/28 06:15:37;;;;;;;9.60;7.77;;;;;;;23.93;58.53;96840.88;4819054;29;20199;-73
2022/05/28 06:18:05;;;;;;;10.23;8.00;;;;;;;24.04;58.47;96847.75;4803778;29;20669;-75
2022/05/28 06:20:34;;;;;;;9.43;7.70;;;;;;;23.98;58.21;96841.25;4818142;29;20239;-76
2022/05/28 06:23:02;;;;;;;12.17;8.73;;;;;;;23.69;59.11;96835.47;4820140;29;20200;-78
2022/05/28 06:25:29;;;;;;;13.37;8.43;;;;;;;23.66;59.20;96841.03;4818164;29;20630;-77
2022/05/28 06:27:57;;;;;;;13.57;8.47;;;;;;;23.59;59.71;96840.03;4819993;29;20297;-77
2022/05/28 06:30:24;;;;;;;9.47;8.33;;;;;;;23.93;59.07;96837.41;4817994;29;20795;-78
2022/05/28 06:32:51;;;;;;;9.27;8.10;;;;;;;24.27;58.91;96845.38;4819295;29;20770;-76
2022/05/28 06:35:19;;;;;;;12.93;8.03;;;;;;;24.40;59.09;96835.19;4848961;29;20298;-74
2022/05/28 06:37:49;;;;;;;10.30;8.40;;;;;;;24.38;58.88;96853.84;4817855;29;20196;-74
2022/05/28 06:40:16;;;;;;;8.50;7.70;;;;;;;24.49;58.69;96845.63;4819536;29;20199;-77
2022/05/28 06:42:46;;;;;;;8.90;8.00;;;;;;;24.28;58.13;96828.53;4816746;29;20714;-77
2022/05/28 06:45:15;;;;;;;9.17;7.80;;;;;;;24.38;57.99;96834.50;4819346;29;20247;-77
2022/05/28 06:47:44;;;;;;;10.77;8.77;;;;;;;24.31;58.51;96818.44;4818901;29;20226;-76
2022/05/28 06:53:01;;;;;;;14.30;9.13;;;;;;;24.14;64.53;96825.47;4818074;29;20215;-74
2022/05/28 06:55:28;;;;;;;11.60;9.37;;;;;;;23.77;63.81;96817.00;4817867;29;20211;-75
2022/05/28 06:57:55;;;;;;;11.70;9.50;;;;;;;23.59;65.84;96792.44;4817959;29;20197;-75
2022/05/28 07:00:23;;;;;;;20.70;15.07;;;;;;;23.58;64.00;96774.06;4817832;29;20204;-73
2022/05/28 07:02:50;;;;;;;11.00;9.30;;;;;;;23.15;65.35;96790.75;4817902;29;20703;-74
2022/05/28 07:05:18;;;;;;;13.00;9.93;;;;;;;22.87;69.00;96791.84;4847688;29;20740;-77
2022/05/28 07:07:48;;;;;;;15.03;9.83;;;;;;;22.90;69.67;96804.72;4817926;29;20614;-74
2022/05/28 07:10:19;;;;;;;16.27;12.97;;;;;;;22.95;70.14;96808.59;4848369;29;20615;-75
2022/05/28 07:12:47;;;;;;;12.60;10.00;;;;;;;23.04;70.09;96814.78;4817603;29;20190;-74
2022/05/28 07:15:16;;;;;;;16.17;11.13;;;;;;;23.19;69.52;96821.16;4817987;29;20207;-76
2022/05/28 07:17:44;;;;;;;15.53;11.97;;;;;;;23.34;69.35;96819.69;4830843;29;20309;-77
2022/05/28 07:20:12;;;;;;;13.97;11.03;;;;;;;23.40;69.25;96805.84;4818456;29;20206;-75
2022/05/28 07:22:41;;;;;;;11.40;10.23;;;;;;;23.41;67.08;96804.88;4817269;29;20294;-75
2022/05/28 07:25:10;;;;;;;12.07;10.40;;;;;;;23.01;69.72;96799.22;4801859;29;20721;-73
2022/05/28 07:27:37;;;;;;;13.30;11.60;;;;;;;22.54;71.08;96798.59;4802949;29;20249;-75
2022/05/28 07:30:06;;;;;;;12.17;10.97;;;;;;;22.67;70.99;96807.00;4816283;29;20223;-76
2022/05/28 07:32:34;;;;;;;15.83;12.33;;;;;;;22.87;71.35;96810.34;4818111;29;20273;-76
2022/05/28 07:35:02;;;;;;;12.30;11.00;;;;;;;23.07;70.08;96812.66;4817471;29;20220;-73
2022/05/28 07:37:30;;;;;;;14.33;11.17;;;;;;;23.35;70.03;96816.03;4832666;29;20203;-76
2022/05/28 07:39:59;;;;;;;15.53;11.07;;;;;;;23.53;67.40;96808.91;4787113;29;20219;-74
2022/05/28 07:42:27;;;;;;;10.77;9.43;;;;;;;23.42;66.94;96806.50;4816372;29;20209;-74
2022/05/28 07:44:55;;;;;;;12.53;9.77;;;;;;;23.34;69.03;96809.09;4817398;29;20249;-72
2022/05/28 07:47:22;;;;;;;13.97;9.73;;;;;;;23.59;67.72;96803.00;4817212;29;20700;-79
2022/05/28 07:49:50;;;;;;;11.43;8.33;;;;;;;23.87;67.14;96793.91;4817671;29;20202;-77
2022/05/28 07:52:21;;;;;;;11.43;9.03;;;;;;;23.95;65.83;96791.28;4801268;29;20269;-73
2022/05/28 07:54:49;;;;;;;9.17;8.10;;;;;;;23.91;65.29;96787.28;4817636;29;20212;-74
2022/05/28 07:57:16;;;;;;;20.50;10.63;;;;;;;24.01;64.81;96777.41;4816045;29;20237;-78
2022/05/28 07:59:43;;;;;;;24.37;10.13;;;;;;;24.27;63.13;96766.81;4817808;29;20209;-75
2022/05/28 08:02:11;;;;;;;11.27;9.40;;;;;;;24.17;62.52;96752.88;4818381;29;20602;-75
2022/05/28 08:04:39;;;;;;;11.27;8.70;;;;;;;24.08;62.62;96746.72;4816250;29;20299;-75
2022/05/28 08:07:06;;;;;;;13.23;10.17;;;;;;;24.02;63.61;96752.63;4817940;29;20210;-76
2022/05/28 08:09:33;;;;;;;9.87;8.83;;;;;;;23.85;64.61;96745.63;4815062;29;20277;-73
2022/05/28 08:12:00;;;;;;;8.80;7.23;;;;;;;23.52;64.41;96743.78;4818188;29;20194;-72
2022/05/28 08:14:29;;;;;;;11.07;8.30;;;;;;;23.54;65.35;96747.09;4817129;29;20207;-72
2022/05/28 08:16:56;;;;;;;13.63;8.33;;;;;;;23.86;65.21;96741.16;4817900;29;20580;-73
2022/05/28 08:19:25;;;;;;;8.20;7.33;;;;;;;24.35;62.17;96735.06;4817475;29;20202;-78
2022/05/28 08:24:38;;;;;;;9.57;7.80;;;;;;;25.10;59.65;96733.97;4817618;29;20269;-78
2022/05/28 08:27:05;;;;;;;10.07;7.90;;;;;;;25.18;58.31;96733.97;4845833;29;20199;-75
2022/05/28 08:29:32;;;;;;;9.50;7.17;;;;;;;25.35;58.43;96740.88;4818512;29;20205;-75
2022/05/28 08:31:59;;;;;;;9.03;6.57;;;;;;;25.43;54.92;96732.94;4820717;29;20232;-76
2022/05/28 08:34:27;;;;;;;9.67;6.20;;;;;;;25.51;54.82;96742.72;4819881;29;20200;-77
2022/05/28 08:36:55;;;;;;;7.93;5.63;;;;;;;25.54;54.42;96735.25;4834820;29;20214;-73
2022/05/28 08:39:25;;;;;;;8.93;6.20;;;;;;;25.79;53.86;96731.53;4803915;29;20348;-77
2022/05/28 08:41:57;;;;;;;7.80;5.53;;;;;;;25.83;52.77;96726.69;4820133;29;20199;-77
2022/05/28 08:44:32;;;;;;;10.03;5.30;;;;;;;25.71;51.35;96736.03;4819993;29;20336;-78
2022/05/28 08:47:24;;;;;;;8.33;5.83;;;;;;;25.76;51.32;96731.84;4819324;29;20244;-77
2022/05/28 08:49:53;;;;;;;9.80;5.73;;;;;;;26.03;51.50;96743.06;4819864;29;20214;-75
2022/05/28 08:52:25;;;;;;;12.40;6.00;;;;;;;26.18;50.55;96733.38;4818554;29;20284;-73
2022/05/28 08:55:01;;;;;;;9.47;6.47;;;;;;;26.40;50.17;96736.06;4820748;29;20198;-77
2022/05/28 08:57:29;;;;;;;10.13;6.10;;;;;;;26.67;50.31;96745.34;4819220;29;20255;-75
2022/05/28 09:00:00;;;;;;;15.63;7.53;;;;;;;26.88;49.36;96740.25;4825299;29;20202;-74
2022/05/28 09:02:52;;;;;;;11.47;5.60;;;;;;;27.00;48.78;96730.84;4832993;29;20213;-75
2022/05/28 09:05:32;;;;;;;18.63;8.27;;;;;;;26.98;49.47;96724.03;4826018;29;20240;-73
2022/05/28 09:08:39;;;;;;;10.17;6.70;;;;;;;26.86;50.49;96709.53;4855987;29;20234;-74
2022/05/28 09:11:59;;;;;;;13.60;6.47;;;;;;;26.99;51.36;96726.56;4823250;29;20198;-74
2022/05/28 09:15:19;;;;;;;16.73;7.90;;;;;;;27.15;49.69;96714.94;4820026;29;20214;-74
2022/05/28 09:18:00;;;;;;;11.83;6.43;;;;;;;27.22;48.78;96721.19;4820032;29;20213;-74
2022/05/28 09:20:37;;;;;;;10.00;6.40;;;;;;;27.37;48.90;96716.72;4822299;29;20253;-72
2022/05/28 09:23:05;;;;;;;12.13;6.67;;;;;;;27.46;49.10;96714.81;4820506;29;20212;-76
2022/05/28 09:25:40;;;;;;;9.73;6.43;;;;;;;27.67;48.43;96723.75;4826588;29;20236;-74
2022/05/28 09:28:27;;;;;;;6.80;6.10;;;;;;;27.81;47.78;96719.41;4821820;29;20206;-73
2022/05/28 09:31:00;;;;;;;12.77;6.80;;;;;;;27.78;47.52;96711.81;4819709;29;20562;-77
2022/05/28 09:33:54;;;;;;;12.23;6.20;;;;;;;27.97;47.02;96713.91;4819184;29;20738;-73
2022/05/28 09:36:33;;;;;;;9.60;5.90;;;;;;;27.69;47.17;96711.06;4848766;29;20215;-72
2022/05/28 09:39:18;;;;;;;8.17;6.27;;;;;;;27.21;48.73;96703.56;4805487;29;20208;-76
2022/05/28 09:42:13;;;;;;;9.67;5.50;;;;;;;27.19;48.35;96685.13;4792079;29;20309;-72
2022/05/28 09:44:58;;;;;;;8.97;6.47;;;;;;;27.15;49.31;96694.50;4804476;29;20710;-72
2022/05/28 09:47:25;;;;;;;10.07;6.43;;;;;;;26.99;49.91;96693.81;4821450;29;20190;-73
2022/05/28 09:49:55;;;;;;;8.43;5.90;;;;;;;27.04;48.30;96665.66;4821218;29;20225;-75
2022/05/28 09:54:16;;;;;;;12.07;5.80;;;;;;;27.26;48.01;96698.53;4819174;29;20198;-71
2022/05/28 09:55:23;;;;;;;10.67;6.27;;;;;;;27.45;47.18;96698.03;4819865;29;20266;-73
2022/05/28 09:58:02;;;;;;;13.17;6.23;;;;;;;27.48;46.23;96695.00;4818982;29;20508;-73
2022/05/28 10:00:30;;;;;;;7.93;5.30;;;;;;;27.16;47.18;96698.78;4820155;29;20270;-77
2022/05/28 10:05:56;;;;;;;10.90;5.30;;;;;;;27.30;47.29;96692.69;4818952;29;20687;-75
2022/05/28 10:08:31;;;;;;;7.43;6.00;;;;;;;27.26;47.48;96683.41;4820446;29;20282;-75
2022/05/28 10:11:04;;;;;;;12.83;6.07;;;;;;;26.84;48.82;96682.31;4818370;29;20280;-74
2022/05/28 10:14:03;;;;;;;18.43;5.90;;;;;;;27.23;46.25;96683.78;4817579;29;20202;-73
2022/05/28 10:16:38;;;;;;;13.60;6.80;;;;;;;27.64;46.37;96680.69;4819534;29;20213;-73
2022/05/28 10:19:41;;;;;;;9.20;5.77;;;;;;;27.81;45.66;96680.31;4818166;29;20219;-72
2022/05/28 10:22:16;;;;;;;10.67;5.17;;;;;;;28.01;44.78;96670.75;4818826;29;20206;-73
2022/05/28 10:24:50;;;;;;;12.13;6.27;;;;;;;28.36;44.94;96673.63;4819126;29;20293;-72
2022/05/28 10:27:47;;;;;;;10.97;5.47;;;;;;;28.35;44.14;96664.78;4817812;29;20205;-73
2022/05/28 10:30:26;;;;;;;10.13;5.27;;;;;;;28.37;43.27;96665.44;4817876;29;20206;-73
2022/05/28 10:32:54;;;;;;;8.93;4.93;;;;;;;28.34;43.41;96654.34;4818612;29;20192;-74
2022/05/28 10:35:28;;;;;;;11.20;5.67;;;;;;;28.48;43.55;96654.25;4816829;29;20687;-78
2022/05/28 10:38:11;;;;;;;7.10;4.30;;;;;;;28.30;43.08;96616.56;4817707;29;20206;-73
2022/05/28 10:40:49;;;;;;;12.07;4.93;;;;;;;28.57;43.54;96650.47;4815969;29;20205;-75
2022/05/28 10:43:25;;;;;;;10.93;5.30;;;;;;;28.55;43.44;96641.81;4802732;29;20236;-77
2022/05/28 10:45:59;;;;;;;11.40;5.67;;;;;;;28.52;43.86;96638.72;4818524;29;20720;-78
2022/05/28 10:49:06;;;;;;;8.60;5.00;;;;;;;28.57;43.51;96642.50;4847080;29;20301;-75
2022/05/28 10:52:12;;;;;;;11.97;5.37;;;;;;;28.81;44.31;96646.59;4817640;29;20292;-75
2022/05/28 10:54:53;;;;;;;13.73;6.63;;;;;;;28.72;43.76;96648.56;4818639;29;20351;-78
2022/05/28 10:57:40;;;;;;;9.23;4.43;;;;;;;28.74;42.34;96657.22;4846449;29;20196;-74
2022/05/28 11:00:25;;;;;;;8.90;5.17;;;;;;;28.69;45.03;96648.94;4817678;29;20189;-76
2022/05/28 11:03:04;;;;;;;10.87;6.43;;;;;;;28.82;44.93;96658.91;4815939;29;20594;-77
2022/05/28 11:05:53;;;;;;;9.53;5.43;;;;;;;28.89;45.15;96651.78;4847215;29;20718;-75
2022/05/28 11:08:30;;;;;;;13.93;6.43;;;;;;;28.85;44.25;96647.88;4818926;29;20241;-79
2022/05/28 11:11:09;;;;;;;11.43;5.77;;;;;;;28.70;45.29;96647.94;4817466;29;20254;-75
2022/05/28 11:14:02;;;;;;;11.90;5.73;;;;;;;28.64;45.16;96634.56;4818919;29;20525;-78
2022/05/28 11:16:41;;;;;;;15.27;6.23;;;;;;;28.74;45.61;96635.88;4818585;29;20197;-76
2022/05/28 11:19:20;;;;;;;11.07;5.50;;;;;;;28.74;45.13;96629.72;4817455;29;20663;-73
2022/05/28 11:22:32;;;;;;;8.53;5.90;;;;;;;28.79;45.12;96633.44;4832508;29;20190;-75
2022/05/28 11:25:25;;;;;;;13.73;5.50;;;;;;;28.90;45.22;96632.09;4818076;29;20212;-73
2022/05/28 11:28:14;;;;;;;10.87;5.30;;;;;;;28.67;45.34;96632.31;4812029;29;20202;-73
2022/05/28 11:30:45;;;;;;;13.40;8.23;;;;;;;28.63;45.99;96639.06;4818288;29;20708;-75
2022/05/28 11:33:30;;;;;;;10.40;5.70;;;;;;;28.63;45.67;96638.22;4817647;29;20285;-79
2022/05/28 11:36:23;;;;;;;9.40;5.10;;;;;;;28.58;45.36;96630.81;4817633;29;20194;-74
2022/05/28 11:38:57;;;;;;;10.77;6.10;;;;;;;28.52;46.43;96628.06;4814705;29;20206;-76
2022/05/28 11:41:33;;;;;;;12.17;6.47;;;;;;;28.66;46.08;96624.53;4845994;29;20199;-77
2022/05/28 11:44:21;;;;;;;10.00;5.67;;;;;;;28.81;45.44;96620.75;4816459;29;20209;-78
2022/05/28 11:46:56;;;;;;;11.43;6.13;;;;;;;28.64;46.68;96621.22;4816842;29;20253;-72
2022/05/28 11:52:32;;;;;;;15.70;6.30;;;;;;;28.40;48.05;96614.41;4818838;29;20208;-76
2022/05/28 11:55:30;;;;;;;12.03;8.13;;;;;;;28.11;49.09;96625.19;4817723;29;20205;-79
2022/05/28 11:58:01;;;;;;;11.90;6.73;;;;;;;28.01;49.50;96616.66;4816395;29;20209;-76
2022/05/28 12:00:32;;;;;;;13.50;6.87;;;;;;;27.82;50.25;96618.06;4819105;29;20258;-74
2022/05/28 12:03:05;;;;;;;9.97;6.43;;;;;;;27.76;50.49;96618.81;4816878;29;20206;-73